createdAt,value
2023-01-06T00:01:36.084Z,4.40
2023-01-06T00:04:05.876Z,4.36
2023-01-06T00:06:35.113Z,4.32
2023-01-06T00:09:05.550Z,4.32
2023-01-06T00:11:35.137Z,4.28
2023-01-06T00:14:06.179Z,4.29
2023-01-06T00:16:37.176Z,4.26
2023-01-06T00:19:06.902Z,4.22
2023-01-06T00:21:36.115Z,4.23
2023-01-06T00:24:06.054Z,4.23
2023-01-06T00:26:35.395Z,4.22
2023-01-06T00:29:05.138Z,4.19
2023-01-06T00:31:34.612Z,4.17
2023-01-06T00:34:04.473Z,4.17
2023-01-06T00:36:34.195Z,4.11
2023-01-06T00:39:04.953Z,4.02
2023-01-06T00:41:52.344Z,4.01
2023-01-06T00:44:22.010Z,3.98
2023-01-06T00:46:51.422Z,3.99
2023-01-06T00:49:20.757Z,3.95
2023-01-06T00:51:50.973Z,3.92
2023-01-06T00:54:20.918Z,3.89
2023-01-06T00:56:53.107Z,3.87
2023-01-06T00:59:23.937Z,3.87
2023-01-06T01:01:55.508Z,3.85
2023-01-06T01:04:26.202Z,3.90
2023-01-06T01:06:56.953Z,3.88
2023-01-06T01:09:28.536Z,3.88
2023-01-06T01:12:10.331Z,3.80
2023-01-06T01:14:42.297Z,3.81
2023-01-06T01:17:13.615Z,3.78
2023-01-06T01:19:43.055Z,3.80
2023-01-06T01:22:13.298Z,3.80
2023-01-06T01:24:42.743Z,3.77
2023-01-06T01:27:13.720Z,3.78
2023-01-06T01:29:43.180Z,3.78
2023-01-06T01:32:12.738Z,3.78
2023-01-06T01:34:42.143Z,3.77
2023-01-06T01:37:11.833Z,3.77
2023-01-06T01:39:41.445Z,3.83
2023-01-06T01:42:17.755Z,3.79
2023-01-06T01:45:03.739Z,3.77
2023-01-06T01:47:41.857Z,3.79
2023-01-06T01:50:23.862Z,3.74
2023-01-06T01:52:56.632Z,3.72
2023-01-06T01:55:27.984Z,3.66
2023-01-06T01:58:01.096Z,3.64
2023-01-06T02:00:31.089Z,3.63
2023-01-06T02:03:01.030Z,3.60
2023-01-06T02:05:32.953Z,3.61
2023-01-06T02:08:07.784Z,3.59
2023-01-06T02:10:37.655Z,3.58
2023-01-06T02:13:07.613Z,3.59
2023-01-06T02:15:37.437Z,3.61
2023-01-06T02:18:24.334Z,3.62
2023-01-06T02:21:36.355Z,3.61
2023-01-06T02:24:37.282Z,3.59
2023-01-06T02:27:40.973Z,3.58
2023-01-06T02:30:34.096Z,3.56
2023-01-06T02:33:14.005Z,3.56
2023-01-06T02:35:57.984Z,3.56
2023-01-06T02:38:42.933Z,3.55
2023-01-06T02:41:28.353Z,3.56
2023-01-06T02:44:04.674Z,3.55
2023-01-06T02:46:55.405Z,3.56
2023-01-06T02:49:31.614Z,3.59
2023-01-06T02:52:06.915Z,3.59
2023-01-06T02:54:50.110Z,3.62
2023-01-06T02:57:29.272Z,3.65
2023-01-06T03:00:08.976Z,3.64
2023-01-06T03:02:41.143Z,3.64
2023-01-06T03:05:15.842Z,3.60
2023-01-06T03:07:47.513Z,3.58
2023-01-06T03:10:20.016Z,3.56
2023-01-06T03:12:55.792Z,3.58
2023-01-06T03:15:26.405Z,3.58
2023-01-06T03:17:56.485Z,3.56
2023-01-06T03:20:25.948Z,3.59
2023-01-06T03:22:55.513Z,3.62
2023-01-06T03:25:25.624Z,3.61
2023-01-06T03:27:55.239Z,3.59
2023-01-06T03:30:28.719Z,3.60
2023-01-06T03:33:07.510Z,3.61
2023-01-06T03:35:56.422Z,3.59
2023-01-06T03:38:39.888Z,3.57
2023-01-06T03:41:19.380Z,3.55
2023-01-06T03:43:59.147Z,3.56
2023-01-06T03:46:36.523Z,3.56
2023-01-06T03:49:09.720Z,3.55
2023-01-06T03:51:48.355Z,3.57
2023-01-06T03:54:31.803Z,3.55
2023-01-06T03:57:06.755Z,3.58
2023-01-06T03:59:41.842Z,3.58
2023-01-06T04:02:11.733Z,3.53
2023-01-06T04:04:41.399Z,3.48
2023-01-06T04:07:11.234Z,3.46
2023-01-06T04:09:42.386Z,3.42
2023-01-06T04:12:29.882Z,3.35
2023-01-06T04:14:59.465Z,3.28
2023-01-06T04:17:28.850Z,3.22
2023-01-06T04:19:58.423Z,3.22
2023-01-06T04:22:28.195Z,3.17
2023-01-06T04:24:57.875Z,3.11
2023-01-06T04:27:27.246Z,3.06
2023-01-06T04:29:56.795Z,2.93
2023-01-06T04:32:26.883Z,2.90
2023-01-06T04:34:56.358Z,2.87
2023-01-06T04:37:25.742Z,2.84
2023-01-06T04:39:55.037Z,2.77
2023-01-06T04:42:24.502Z,2.79
2023-01-06T04:44:53.793Z,2.73
2023-01-06T04:47:23.364Z,2.66
2023-01-06T04:49:52.743Z,2.66
2023-01-06T04:52:22.029Z,2.66
2023-01-06T04:54:51.485Z,2.57
2023-01-06T04:57:20.841Z,2.58
2023-01-06T04:59:50.086Z,2.57
2023-01-06T05:02:19.544Z,2.57
2023-01-06T05:04:48.876Z,2.56
2023-01-06T05:07:18.347Z,2.55
2023-01-06T05:09:47.807Z,2.50
2023-01-06T05:12:17.282Z,2.49
2023-01-06T05:14:46.658Z,2.50
2023-01-06T05:17:16.045Z,2.51
2023-01-06T05:19:45.674Z,2.47
2023-01-06T05:22:15.198Z,2.47
2023-01-06T05:24:44.514Z,2.47
2023-01-06T05:27:13.870Z,2.45
2023-01-06T05:29:43.563Z,2.44
2023-01-06T05:32:13.115Z,2.42
2023-01-06T05:34:42.455Z,2.42
2023-01-06T05:37:11.857Z,2.40
2023-01-06T05:39:41.337Z,2.44
2023-01-06T05:42:10.855Z,2.45
2023-01-06T05:44:40.244Z,2.43
2023-01-06T05:47:09.664Z,2.51
2023-01-06T05:49:39.209Z,2.55
2023-01-06T05:52:08.699Z,2.58
2023-01-06T05:54:38.886Z,2.57
2023-01-06T05:57:09.510Z,2.58
2023-01-06T05:59:39.096Z,2.60
2023-01-06T06:02:09.209Z,2.61
2023-01-06T06:04:40.799Z,2.62
2023-01-06T06:07:10.326Z,2.63
2023-01-06T06:09:40.176Z,2.65
2023-01-06T06:12:09.704Z,2.64
2023-01-06T06:14:39.985Z,2.64
2023-01-06T06:17:09.403Z,2.63
2023-01-06T06:19:39.193Z,2.62
2023-01-06T06:22:10.662Z,2.62
2023-01-06T06:24:40.317Z,2.62
2023-01-06T06:27:09.597Z,2.64
2023-01-06T06:29:39.075Z,2.66
2023-01-06T06:32:08.595Z,2.68
2023-01-06T06:34:38.043Z,2.71
2023-01-06T06:37:07.614Z,2.66
2023-01-06T06:39:36.927Z,2.65
2023-01-06T06:42:07.065Z,2.64
2023-01-06T06:44:36.482Z,2.66
2023-01-06T06:47:06.589Z,2.69
2023-01-06T06:49:36.045Z,2.71
2023-01-06T06:52:05.726Z,2.72
2023-01-06T06:54:35.333Z,2.72
2023-01-06T06:57:05.076Z,2.75
2023-01-06T06:59:36.189Z,2.80
2023-01-06T07:02:05.733Z,2.80
2023-01-06T07:04:40.434Z,2.81
2023-01-06T07:07:10.173Z,2.83
2023-01-06T07:09:39.765Z,2.84
2023-01-06T07:12:10.145Z,2.86
2023-01-06T07:14:39.807Z,2.87
2023-01-06T07:17:09.394Z,2.90
2023-01-06T07:19:39.079Z,2.91
2023-01-06T07:22:09.359Z,2.96
2023-01-06T07:24:39.155Z,2.96
2023-01-06T07:27:08.482Z,2.96
2023-01-06T07:29:37.885Z,2.94
2023-01-06T07:32:10.075Z,2.96
2023-01-06T07:34:40.194Z,2.98
2023-01-06T07:37:09.751Z,2.98
2023-01-06T07:39:39.257Z,3.00
2023-01-06T07:42:10.294Z,3.01
2023-01-06T07:44:40.065Z,3.05
2023-01-06T07:47:11.314Z,3.07
2023-01-06T07:49:45.484Z,3.10
2023-01-06T07:52:14.817Z,3.14
2023-01-06T07:54:44.555Z,3.15
2023-01-06T07:57:13.932Z,3.19
2023-01-06T07:59:43.275Z,3.23
2023-01-06T08:02:12.963Z,3.24
2023-01-06T08:04:42.707Z,3.24
2023-01-06T08:07:14.132Z,3.26
2023-01-06T08:09:43.460Z,3.27
2023-01-06T08:12:12.987Z,3.22
2023-01-06T08:14:42.535Z,3.18
2023-01-06T08:17:12.517Z,3.19
2023-01-06T08:19:44.265Z,3.21
2023-01-06T08:22:13.667Z,3.16
2023-01-06T08:24:43.137Z,3.14
2023-01-06T08:27:12.603Z,3.15
2023-01-06T08:29:42.097Z,3.19
2023-01-06T08:32:11.674Z,3.24
2023-01-06T08:34:41.674Z,3.24
2023-01-06T08:37:12.439Z,3.19
2023-01-06T08:39:42.214Z,3.18
2023-01-06T08:42:12.464Z,3.17
2023-01-06T08:44:45.424Z,3.17
2023-01-06T08:47:15.722Z,3.19
2023-01-06T08:49:47.819Z,3.22
2023-01-06T08:52:17.543Z,3.23
2023-01-06T08:54:47.076Z,3.26
2023-01-06T08:57:16.526Z,3.30
2023-01-06T08:59:46.317Z,3.31
2023-01-06T09:02:15.811Z,3.31
2023-01-06T09:04:45.411Z,3.31
2023-01-06T09:07:15.059Z,3.32
2023-01-06T09:09:44.573Z,3.31
2023-01-06T09:12:14.054Z,3.32
2023-01-06T09:14:43.838Z,3.36
2023-01-06T09:17:13.264Z,3.37
2023-01-06T09:19:43.013Z,3.36
2023-01-06T09:22:12.741Z,3.36
2023-01-06T09:24:42.402Z,3.38
2023-01-06T09:27:11.804Z,3.42
2023-01-06T09:29:43.263Z,3.40
2023-01-06T09:32:12.672Z,3.41
2023-01-06T09:34:42.198Z,3.39
2023-01-06T09:37:15.137Z,3.33
2023-01-06T09:39:44.619Z,3.31
2023-01-06T09:42:37.352Z,3.30
2023-01-06T09:45:12.021Z,3.32
2023-01-06T09:47:48.514Z,3.28
2023-01-06T09:50:30.585Z,3.29
2023-01-06T09:53:05.903Z,3.32
2023-01-06T09:55:40.877Z,3.35
2023-01-06T09:58:15.161Z,3.44
2023-01-06T10:00:46.376Z,3.51
2023-01-06T10:03:18.513Z,3.58
2023-01-06T10:06:00.025Z,3.63
2023-01-06T10:08:42.068Z,3.69
2023-01-06T10:11:15.337Z,3.69
2023-01-06T10:13:56.504Z,3.68
2023-01-06T10:16:40.072Z,3.61
2023-01-06T10:19:27.790Z,3.57
2023-01-06T10:22:08.298Z,3.50
2023-01-06T10:24:50.693Z,3.47
2023-01-06T10:27:28.651Z,3.51
2023-01-06T10:30:02.957Z,3.56
2023-01-06T10:32:36.843Z,3.62
2023-01-06T10:35:14.120Z,3.60
2023-01-06T10:37:46.484Z,3.58
2023-01-06T10:40:21.542Z,3.47
2023-01-06T10:42:58.493Z,3.51
2023-01-06T10:45:32.714Z,3.49
2023-01-06T10:48:04.048Z,3.41
2023-01-06T10:50:35.417Z,3.46
2023-01-06T10:53:05.493Z,3.44
2023-01-06T10:55:41.109Z,3.46
2023-01-06T10:58:20.013Z,3.50
2023-01-06T11:01:01.402Z,3.53
2023-01-06T11:03:33.685Z,3.60
2023-01-06T11:06:15.625Z,3.69
2023-01-06T11:08:46.073Z,3.79
2023-01-06T11:11:27.859Z,3.84
2023-01-06T11:14:00.388Z,3.87
2023-01-06T11:16:32.531Z,3.86
2023-01-06T11:19:05.510Z,3.87
2023-01-06T11:21:44.432Z,3.77
2023-01-06T11:24:19.651Z,3.68
2023-01-06T11:26:53.901Z,3.74
2023-01-06T11:29:31.343Z,3.77
2023-01-06T11:32:06.428Z,3.73
2023-01-06T11:34:36.195Z,3.85
2023-01-06T11:37:06.100Z,3.99
2023-01-06T11:39:37.557Z,4.16
2023-01-06T11:42:13.820Z,4.21
2023-01-06T11:44:43.756Z,4.16
2023-01-06T11:47:17.435Z,4.22
2023-01-06T11:49:50.758Z,4.22
2023-01-06T11:52:24.969Z,4.30
2023-01-06T11:55:21.542Z,4.23
2023-01-06T11:57:59.956Z,4.19
2023-01-06T12:00:39.148Z,4.14
2023-01-06T12:03:19.004Z,4.20
2023-01-06T12:05:56.893Z,4.16
2023-01-06T12:08:32.003Z,4.19
2023-01-06T12:11:07.194Z,4.24
2023-01-06T12:13:44.188Z,4.28
2023-01-06T12:16:25.165Z,4.31
2023-01-06T12:18:55.832Z,4.28
2023-01-06T12:21:31.202Z,4.28
2023-01-06T12:24:05.351Z,4.31
2023-01-06T12:26:35.655Z,4.35
2023-01-06T12:29:06.787Z,4.38
2023-01-06T12:31:48.296Z,4.44
2023-01-06T12:34:22.761Z,4.45
2023-01-06T12:36:59.035Z,4.47
2023-01-06T12:39:36.253Z,4.50
2023-01-06T12:42:16.380Z,4.49
2023-01-06T12:44:51.442Z,4.46
2023-01-06T12:47:28.595Z,4.48
2023-01-06T12:50:02.326Z,4.49
2023-01-06T12:52:33.565Z,4.52
2023-01-06T12:55:04.351Z,4.48
2023-01-06T12:57:47.118Z,4.53
2023-01-06T13:00:37.427Z,4.57
2023-01-06T13:03:55.872Z,4.57
2023-01-06T13:06:43.601Z,4.58
2023-01-06T13:09:25.462Z,4.54
2023-01-06T13:12:13.365Z,4.56
2023-01-06T13:14:49.351Z,4.59
2023-01-06T13:17:24.433Z,4.60
2023-01-06T13:19:56.199Z,4.58
2023-01-06T13:22:39.367Z,4.47
2023-01-06T13:25:28.931Z,4.40
2023-01-06T13:28:08.903Z,4.44
2023-01-06T13:30:58.504Z,4.44
2023-01-06T13:33:48.475Z,4.46
2023-01-06T13:36:41.831Z,4.27
2023-01-06T13:39:16.373Z,4.27
2023-01-06T13:41:49.621Z,4.30
2023-01-06T13:44:23.722Z,4.35
2023-01-06T13:47:03.461Z,4.36
2023-01-06T13:49:37.932Z,4.35
2023-01-06T13:52:15.161Z,4.36
2023-01-06T13:55:22.613Z,4.32
2023-01-06T13:57:52.456Z,4.38
2023-01-06T14:00:25.336Z,4.38
2023-01-06T14:03:25.378Z,4.36
2023-01-06T14:05:59.242Z,4.36
2023-01-06T14:08:37.949Z,4.39
2023-01-06T14:11:25.351Z,4.33
2023-01-06T14:13:57.420Z,4.31
2023-01-06T14:16:43.031Z,4.23
2023-01-06T14:19:17.766Z,4.16
2023-01-06T14:21:48.943Z,4.07
2023-01-06T14:24:27.904Z,3.94
2023-01-06T14:27:00.752Z,3.88
2023-01-06T14:30:03.978Z,3.89
2023-01-06T14:33:08.365Z,3.87
2023-01-06T14:35:43.455Z,3.82
2023-01-06T14:38:24.240Z,3.77
2023-01-06T14:40:58.038Z,3.76
2023-01-06T14:43:38.723Z,3.76
2023-01-06T14:46:19.225Z,3.78
2023-01-06T14:48:54.151Z,3.79
2023-01-06T14:51:24.397Z,3.79
2023-01-06T14:54:00.362Z,3.74
2023-01-06T14:56:31.180Z,3.71
2023-01-06T14:59:16.138Z,3.66
2023-01-06T15:02:00.499Z,3.61
2023-01-06T15:04:38.923Z,3.62
2023-01-06T15:07:24.033Z,3.62
2023-01-06T15:10:15.147Z,3.59
2023-01-06T15:12:56.849Z,3.49
2023-01-06T15:15:34.290Z,3.34
2023-01-06T15:18:14.507Z,3.35
2023-01-06T15:20:49.848Z,3.35
2023-01-06T15:23:21.793Z,3.33
2023-01-06T15:25:53.261Z,3.32
2023-01-06T15:28:26.932Z,3.34
2023-01-06T15:30:57.569Z,3.38
2023-01-06T15:33:33.312Z,3.39
2023-01-06T15:36:03.629Z,3.38
2023-01-06T15:38:36.692Z,3.36
2023-01-06T15:41:27.472Z,3.45
2023-01-06T15:43:57.672Z,3.42
2023-01-06T15:46:36.256Z,3.43
2023-01-06T15:49:06.815Z,3.44
2023-01-06T15:51:36.340Z,3.40
2023-01-06T15:54:06.361Z,3.40
2023-01-06T15:56:36.401Z,3.32
2023-01-06T15:59:13.914Z,3.25
2023-01-06T16:01:50.615Z,3.32
2023-01-06T16:04:21.782Z,3.43
2023-01-06T16:06:52.022Z,3.33
2023-01-06T16:09:35.603Z,3.28
2023-01-06T16:12:22.409Z,3.37
2023-01-06T16:14:52.046Z,3.28
2023-01-06T16:17:29.437Z,3.29
2023-01-06T16:20:01.127Z,3.21
2023-01-06T16:22:38.059Z,3.22
2023-01-06T16:25:23.814Z,3.16
2023-01-06T16:27:56.573Z,3.15
2023-01-06T16:30:28.247Z,3.10
2023-01-06T16:33:00.242Z,2.96
2023-01-06T16:35:31.773Z,2.99
2023-01-06T16:38:03.794Z,2.98
2023-01-06T16:40:33.324Z,2.97
2023-01-06T16:43:03.610Z,3.01
2023-01-06T16:45:38.272Z,2.99
2023-01-06T16:48:09.255Z,2.97
2023-01-06T16:50:42.056Z,2.91
2023-01-06T16:53:15.895Z,2.93
2023-01-06T16:55:46.037Z,2.96
2023-01-06T16:58:17.848Z,3.02
2023-01-06T17:00:51.647Z,2.94
2023-01-06T17:03:23.474Z,2.90
2023-01-06T17:05:53.748Z,2.90
2023-01-06T17:08:27.894Z,2.91
2023-01-06T17:11:00.011Z,2.93
2023-01-06T17:13:38.669Z,2.92
2023-01-06T17:16:17.282Z,2.94
2023-01-06T17:18:55.229Z,2.96
2023-01-06T17:21:28.436Z,2.97
2023-01-06T17:24:02.705Z,3.00
2023-01-06T17:26:32.599Z,2.95
2023-01-06T17:29:03.220Z,3.01
2023-01-06T17:31:35.666Z,3.08
2023-01-06T17:34:14.842Z,3.06
2023-01-06T17:36:49.364Z,3.04
2023-01-06T17:39:22.862Z,3.16
2023-01-06T17:41:58.339Z,3.23
2023-01-06T17:44:34.776Z,3.15
2023-01-06T17:47:12.374Z,3.14
2023-01-06T17:49:44.267Z,3.28
2023-01-06T17:52:19.769Z,3.28
2023-01-06T17:55:15.538Z,3.20
2023-01-06T17:57:47.299Z,3.14
2023-01-06T18:00:27.840Z,3.25
2023-01-06T18:03:03.838Z,3.22
2023-01-06T18:06:08.600Z,3.22
2023-01-06T18:08:40.893Z,3.19
2023-01-06T18:11:30.205Z,3.29
2023-01-06T18:14:15.719Z,3.36
2023-01-06T18:16:48.217Z,3.36
2023-01-06T18:19:35.614Z,3.28
2023-01-06T18:22:14.524Z,3.29
2023-01-06T18:24:46.585Z,3.40
2023-01-06T18:27:23.423Z,3.39
2023-01-06T18:29:56.135Z,3.36
2023-01-06T18:32:31.622Z,3.39
2023-01-06T18:35:02.604Z,3.40
2023-01-06T18:37:33.574Z,3.39
2023-01-06T18:40:04.973Z,3.41
2023-01-06T18:42:37.103Z,3.43
2023-01-06T18:45:25.703Z,3.46
2023-01-06T18:47:59.390Z,3.52
2023-01-06T18:50:29.577Z,3.56
2023-01-06T18:52:59.888Z,3.51
2023-01-06T18:55:37.316Z,3.56
2023-01-06T18:58:20.940Z,3.62
2023-01-06T19:00:55.092Z,3.66
2023-01-06T19:03:40.867Z,3.69
2023-01-06T19:06:47.811Z,3.73
2023-01-06T19:09:33.639Z,3.75
2023-01-06T19:12:27.270Z,3.80
2023-01-06T19:15:18.620Z,3.81
2023-01-06T19:17:58.830Z,3.82
2023-01-06T19:20:37.225Z,3.81
2023-01-06T19:23:21.304Z,3.84
2023-01-06T19:26:02.826Z,3.85
2023-01-06T19:28:40.596Z,3.87
2023-01-06T19:31:20.249Z,3.90
2023-01-06T19:33:58.477Z,3.91
2023-01-06T19:36:47.373Z,3.90
2023-01-06T19:39:35.207Z,3.91
2023-01-06T19:42:29.742Z,3.95
2023-01-06T19:45:04.093Z,4.02
2023-01-06T19:47:43.018Z,3.98
2023-01-06T19:50:20.946Z,3.99
2023-01-06T19:53:01.093Z,4.00
2023-01-06T19:55:35.874Z,4.01
2023-01-06T19:58:17.544Z,4.04
2023-01-06T20:00:50.922Z,4.08
2023-01-06T20:03:34.638Z,4.08
2023-01-06T20:06:08.133Z,4.09
2023-01-06T20:08:47.355Z,4.15
2023-01-06T20:11:20.075Z,4.24
2023-01-06T20:13:52.405Z,4.37
2023-01-06T20:16:27.802Z,4.46
2023-01-06T20:19:02.010Z,4.56
2023-01-06T20:21:34.496Z,4.70
2023-01-06T20:24:11.304Z,4.82
2023-01-06T20:26:44.149Z,4.99
2023-01-06T20:29:18.070Z,5.04
2023-01-06T20:31:52.364Z,5.13
2023-01-06T20:34:23.722Z,5.25
2023-01-06T20:36:54.123Z,5.33
2023-01-06T20:39:26.571Z,5.44
2023-01-06T20:42:00.359Z,5.53
2023-01-06T20:44:30.213Z,5.57
2023-01-06T20:46:59.874Z,5.60
2023-01-06T20:49:29.144Z,5.64
2023-01-06T20:51:58.648Z,5.70
2023-01-06T20:54:28.613Z,5.76
2023-01-06T20:56:58.166Z,5.80
2023-01-06T20:59:27.712Z,5.84
2023-01-06T21:01:57.370Z,5.88
2023-01-06T21:04:35.066Z,5.95
2023-01-06T21:07:06.489Z,5.92
2023-01-06T21:09:36.141Z,5.97
2023-01-06T21:12:09.893Z,5.96
2023-01-06T21:14:38.114Z,6.00
2023-01-06T21:17:07.483Z,6.01
2023-01-06T21:19:36.936Z,6.04
2023-01-06T21:22:06.396Z,6.11
2023-01-06T21:24:35.816Z,6.13
2023-01-06T21:27:10.156Z,6.16
2023-01-06T21:29:40.004Z,6.17
2023-01-06T21:32:10.033Z,6.20
2023-01-06T21:34:39.338Z,6.24
2023-01-06T21:37:09.140Z,6.25
2023-01-06T21:39:39.435Z,6.23
2023-01-06T21:42:28.944Z,6.27
2023-01-06T21:45:09.664Z,6.33
2023-01-06T21:47:44.157Z,6.31
2023-01-06T21:50:13.615Z,6.37
2023-01-06T21:52:46.564Z,6.45
2023-01-06T21:55:17.318Z,6.47
2023-01-06T21:57:47.573Z,6.45
2023-01-06T22:00:17.865Z,6.46
2023-01-06T22:02:52.396Z,6.47
2023-01-06T22:05:23.075Z,6.50
2023-01-06T22:07:54.339Z,6.52
2023-01-06T22:10:26.346Z,6.51
2023-01-06T22:12:58.794Z,6.52
2023-01-06T22:15:29.399Z,6.56
2023-01-06T22:18:00.752Z,6.58
2023-01-06T22:20:32.184Z,6.60
2023-01-06T22:23:07.550Z,6.61
2023-01-06T22:25:37.081Z,6.60
2023-01-06T22:28:06.639Z,6.60
2023-01-06T22:30:36.326Z,6.61
2023-01-06T22:33:05.963Z,6.58
2023-01-06T22:35:35.472Z,6.56
2023-01-06T22:38:08.122Z,6.58
2023-01-06T22:40:37.496Z,6.60
2023-01-06T22:43:07.251Z,6.60
2023-01-06T22:45:36.847Z,6.63
2023-01-06T22:48:06.554Z,6.64
2023-01-06T22:50:39.833Z,6.66
2023-01-06T22:53:09.442Z,6.68
2023-01-06T22:55:38.947Z,6.72
2023-01-06T22:58:08.547Z,6.75
2023-01-06T23:00:38.085Z,6.76
2023-01-06T23:03:07.764Z,6.78
2023-01-06T23:05:37.224Z,6.80
2023-01-06T23:08:09.468Z,6.82
2023-01-06T23:10:38.874Z,6.84
2023-01-06T23:13:08.285Z,6.83
2023-01-06T23:15:37.687Z,6.86
2023-01-06T23:18:07.279Z,6.86
2023-01-06T23:20:36.615Z,6.87
2023-01-06T23:23:05.954Z,6.88
2023-01-06T23:25:35.357Z,6.93
2023-01-06T23:28:05.628Z,6.94
2023-01-06T23:30:35.012Z,6.96
2023-01-06T23:33:04.705Z,7.06
2023-01-06T23:35:34.003Z,7.09
2023-01-06T23:38:03.679Z,7.08
2023-01-06T23:40:33.273Z,7.20
2023-01-06T23:43:02.856Z,7.20
2023-01-06T23:45:32.213Z,7.22
2023-01-06T23:48:01.754Z,7.22
2023-01-06T23:50:31.120Z,7.21
2023-01-06T23:53:00.533Z,7.20
2023-01-06T23:55:29.803Z,7.22
2023-01-06T23:57:59.036Z,7.23
